NY/NJ Local METAR Reports

 

KNYC - NYC/Central Park, NY, USA
Distance from Hoboken: NE 4mi, 7km
Updated: 03/23/2019 10:51am
Clear
Clear
 Wind from WNW
Wind: WNW 8 mph , 13 km/h, Gust: 20 mph , 31 km/h
Temperature: 37°F , 3°C
Wind Chill: 31°F , -1°C
Dew Point: 19°F , -7°C
Humidity: 48%
Barometer: 29.86 inHg , 1011.2 hPa
Clouds: Clear
Visibility: 10 miles , 16 km
2019/03/23 14:51 KNYC 231451Z AUTO 29007G17KT 250V010 10SM CLR 03/M07 A2986 RMK AO2 SLP103 T00331067 51038 $
KEWR - Newark, NJ, USA
Distance from Hoboken: WSW 8mi, 13km
Updated: 03/23/2019 10:51am
Mostly cloudy
Mostly cloudy
 Wind from WNW
Wind: WNW 22 mph , 35 km/h, Gust: 32 mph , 52 km/h
Temperature: 41°F , 5°C
Wind Chill: 31°F , -1°C
Dew Point: 21°F , -6°C
Humidity: 45%
Barometer: 29.86 inHg , 1011.2 hPa
Clouds: Mostly cloudy
Visibility: 10 miles , 16 km
Cloud details: Few Clouds 3700 ft
Partly cloudy 16000 ft
Mostly cloudy 25000 ft
2019/03/23 14:51 KEWR 231451Z 29019G28KT 10SM FEW037 SCT160 BKN250 05/M06 A2986 RMK AO2 PK WND 28030/1413 SLP110 T00501061 53035
 
KLGA - NYC/La Guardia, NY, USA
Distance from Hoboken: ENE 8mi, 13km
Updated: 03/23/2019 10:51am
Mostly cloudy
Mostly cloudy
 Wind from NW
Wind: NW 20 mph , 31 km/h, Gust: 24 mph , 39 km/h
Temperature: 37°F , 3°C
Wind Chill: 27°F , -3°C
Dew Point: 21°F , -6°C
Humidity: 52%
Barometer: 29.84 inHg , 1010.5 hPa
Clouds: Mostly cloudy
Visibility: 10 miles , 16 km
Cloud details: Few Clouds 3800 ft
Mostly cloudy 16000 ft
2019/03/23 14:51 KLGA 231451Z 32017G21KT 10SM FEW038 BKN160 03/M06 A2984 RMK AO2 PK WND 31029/1355 SLP103 T00331056 51039
KTEB - Teterboro, NJ, USA
Distance from Hoboken: N 9mi, 14km
Updated: 03/23/2019 10:51am
Clear
Clear
 Wind from WNW
Wind: WNW 16 mph , 26 km/h, Gust: 25 mph , 41 km/h
Temperature: 37°F , 3°C
Wind Chill: 28°F , -2°C
Dew Point: 21°F , -6°C
Humidity: 52%
Barometer: 29.84 inHg , 1010.5 hPa
Clouds: Clear
Visibility: 10 miles , 16 km
2019/03/23 14:51 KTEB 231451Z 30014G22KT 10SM CLR 03/M06 A2984 RMK AO2 SLP104 T00331061 51037 $
 
KJFK - NYC/Jfk Arpt, NY, USA
Distance from Hoboken: ESE 16mi, 25km
Updated: 03/23/2019 10:51am
Mostly cloudy
Mostly cloudy
 Wind from WNW
Wind: WNW 21 mph , 33 km/h, Gust: 33 mph , 54 km/h
Temperature: 39°F , 4°C
Wind Chill: 29°F , -2°C
Dew Point: 23°F , -5°C
Humidity: 52%
Barometer: 29.84 inHg , 1010.5 hPa
Clouds: Mostly cloudy
Visibility: 10 miles , 16 km
Cloud details: Few Clouds 4000 ft
Mostly cloudy 14000 ft
2019/03/23 14:51 KJFK 231451Z 30018G29KT 10SM FEW040 BKN140 04/M05 A2984 RMK AO2 PK WND 29036/1411 SLP104 T00391050 53035
KCDW - Caldwell, NJ, USA
Distance from Hoboken: NW 16mi, 26km
Updated: 03/23/2019 10:53am
Clear
Clear
 Wind from NW
Wind: NW 16 mph , 26 km/h, Gust: 33 mph , 54 km/h
Temperature: 39°F , 4°C
Wind Chill: 30°F , -1°C
Dew Point: 21°F , -6°C
Humidity: 48%
Barometer: 29.86 inHg , 1011.2 hPa
Clouds: Clear
Visibility: 10 miles , 16 km
2019/03/23 14:53 KCDW 231453Z 31014G29KT 10SM CLR 04/M06 A2986 RMK AO2 PK WND 31029/1447 SLP117 T00391061 53032
 
KMMU - Morristown Muni, NJ, USA
Distance from Hoboken: W 20mi, 33km
Updated: 03/23/2019 10:45am
Mostly cloudy
Mostly cloudy
 Wind from WNW
Wind: WNW 20 mph , 31 km/h, Gust: 30 mph , 48 km/h
Temperature: 39°F , 4°C
Wind Chill: 29°F , -2°C
Dew Point: 23°F , -5°C
Humidity: 52%
Barometer: 29.87 inHg , 1011.5 hPa
Clouds: Mostly cloudy
Visibility: 10 miles , 16 km
Cloud details: Few Clouds 3700 ft
Mostly cloudy 16000 ft
Mostly cloudy 22000 ft
2019/03/23 14:45 KMMU 231445Z 30017G26KT 10SM FEW037 BKN160 BKN220 04/M05 A2987
KHPN - White Plains, NY, USA
Distance from Hoboken: NE 28mi, 46km
Updated: 03/23/2019 10:56am
Few Clouds
Few Clouds
 Wind from WNW
Wind: WNW 25 mph , 41 km/h, Gust: 37 mph , 59 km/h
Temperature: 34°F , 1°C
Wind Chill: 21°F , -6°C
Dew Point: 19°F , -7°C
Humidity: 56%
Barometer: 29.78 inHg , 1008.5 hPa
Clouds: Few Clouds
Visibility: 10 miles , 16 km
Cloud details: Few Clouds 3400 ft
2019/03/23 14:56 KHPN 231456Z 30022G32KT 10SM FEW034 01/M07 A2978 RMK AO2 PK WND 29040/1359 SLP090 T00111072 51039
 
KFRG - Farmingdale, NY, USA
Distance from Hoboken: E 32mi, 52km
Updated: 03/23/2019 10:53am
Clear
Clear
 Wind from WNW
Wind: WNW 18 mph , 30 km/h, Gust: 32 mph , 52 km/h
Temperature: 37°F , 3°C
Wind Chill: 27°F , -3°C
Dew Point: 21°F , -6°C
Humidity: 52%
Barometer: 29.79 inHg , 1008.8 hPa
Clouds: Clear
Visibility: 10 miles , 16 km
2019/03/23 14:53 KFRG 231453Z 30016G28KT 10SM CLR 03/M06 A2979 RMK AO2 PK WND 31037/1419 SLP089 T00331061 53036
KSMQ - Somerville, NJ, USA
Distance from Hoboken: WSW 34mi, 55km
Updated: 03/23/2019 10:53am
Clear
Clear
 Wind from WNW
Wind: WNW 12 mph , 19 km/h, Gust: 32 mph , 52 km/h
Temperature: 39°F , 4°C
Wind Chill: 32°F , 0°C
Dew Point: 19°F , -7°C
Humidity: 45%
Barometer: 29.88 inHg , 1011.9 hPa
Clouds: Clear
Visibility: 10 miles , 16 km
2019/03/23 14:53 KSMQ 231453Z AUTO 30010G28KT 10SM CLR 04/M07 A2988 RMK AO2 PK WND 32028/1446 SLP119 T00441067 53032
 
KBLM - Belmar/Farmdale, NJ, USA
Distance from Hoboken: S 40mi, 64km
Updated: 03/23/2019 10:56am
Clear
Clear
 Wind from W
Wind: W 28 mph , 44 km/h, Gust: 40 mph , 65 km/h
Temperature: 41°F , 5°C
Wind Chill: 30°F , -1°C
Dew Point: 21°F , -6°C
Humidity: 45%
Barometer: 29.86 inHg , 1011.2 hPa
Clouds: Clear
Visibility: 10 miles , 16 km
2019/03/23 14:56 KBLM 231456Z AUTO 27024G35KT 10SM CLR 05/M06 A2986 RMK AO2 PK WND 28035/1453 SLP117 T00501056 51026
K12N - Andover, NJ, USA
Distance from Hoboken: WNW 41mi, 67km
Updated: 03/23/2019 10:54am

 Wind from NW
Wind: NW 9 mph , 15 km/h, Gust: 21 mph , 33 km/h
Temperature: 36°F , 2°C
Wind Chill: 29°F , -2°C
Dew Point: 19°F , -7°C
Humidity: 52%
Barometer: 29.88 inHg , 1011.9 hPa
2019/03/23 14:54 K12N 231454Z AUTO 31008G18KT 270V340 02/M07 A2988 RMK AO1 SLP127 T00221072 53029
 
KFWN - Sussex, NJ, USA
Distance from Hoboken: NW 45mi, 72km
Updated: 03/23/2019 10:53am
Clear
Clear
 Wind from WNW
Wind: WNW 12 mph , 19 km/h, Gust: 21 mph , 33 km/h
Temperature: 37°F , 3°C
Wind Chill: 29°F , -2°C
Dew Point: 21°F , -6°C
Humidity: 52%
Barometer: 29.87 inHg , 1011.5 hPa
Clouds: Clear
Visibility: 10 miles , 16 km
2019/03/23 14:53 KFWN 231453Z AUTO 30010G18KT 280V350 10SM CLR 03/M06 A2987 RMK AO2 SLP118 T00281061 51033
KISP - Islip, NY, USA
Distance from Hoboken: E 49mi, 79km
Updated: 03/23/2019 10:56am
Overcast
Overcast
 Wind from WNW
Wind: WNW 26 mph , 43 km/h, Gust: 44 mph , 70 km/h
Temperature: 37°F , 3°C
Wind Chill: 25°F , -4°C
Dew Point: 21°F , -6°C
Humidity: 52%
Barometer: 29.76 inHg , 1007.8 hPa
Clouds: Overcast
Visibility: 10 miles , 16 km
Cloud details: Few Clouds 3800 ft
Overcast 14000 ft
2019/03/23 14:56 KISP 231456Z 30023G38KT 10SM FEW038 OVC140 03/M06 A2976 RMK AO2 PK WND 29041/1427 SLP078 T00281056 51035